Time;durP1;ratioP1;P1;durP2;ratioP2;P2;SDS_P1;SDS_P2;PMS_P1;PMS_P2;Temp;Humidity;BMP_temperature;BMP_pressure;BME280_temperature;BME280_humidity;BME280_pressure;Samples;Min_cycle;Max_cycle;Signal;HPM_P1;HPM_P2
2023/04/03 00:00:04;;;;;;;;;;;;;;;1.45;100.00;103022.34;5053824;28;19943;-45
2023/04/03 00:02:29;;;;;;;;;;;;;;;1.48;100.00;103022.66;5056828;28;19923;-46
2023/04/03 00:04:54;;;;;;;;;;;;;;;1.56;100.00;103025.94;5048635;28;20299;-45
2023/04/03 00:07:20;;;;;;;;;;;;;;;1.60;100.00;103033.13;5053215;28;20631;-46
2023/04/03 00:09:45;;;;;;;;;;;;;;;1.64;100.00;103034.28;5051291;28;19998;-46
2023/04/03 00:12:10;;;;;;;;;;;;;;;1.68;100.00;103031.31;5052928;28;19962;-46
2023/04/03 00:14:36;;;;;;;;;;;;;;;1.73;99.87;103027.59;5055725;28;19916;-45
2023/04/03 00:17:01;;;;;;;;;;;;;;;1.77;99.60;103020.47;5055825;28;20371;-47
2023/04/03 00:19:26;;;;;;;;;;;;;;;1.83;98.84;103027.78;5055320;28;20003;-45
2023/04/03 00:21:53;;;;;;;;;;;;;;;1.88;97.67;103034.16;5054440;28;19928;-48
2023/04/03 00:24:18;;;;;;;;;;;;;;;1.92;97.26;103041.34;5054944;28;20383;-47
2023/04/03 00:26:44;;;;;;;;;;;;;;;1.94;97.04;103044.91;5055803;28;20411;-47
2023/04/03 00:29:09;;;;;;;;;;;;;;;1.96;96.76;103050.16;5058719;28;19916;-49
2023/04/03 00:31:34;;;;;;;;;;;;;;;1.98;96.85;103041.94;5059932;28;19952;-46
2023/04/03 00:33:59;;;;;;;;;;;;;;;2.00;96.37;103040.47;5054834;28;19920;-50
2023/04/03 00:36:25;;;;;;;;;;;;;;;2.00;97.01;103045.53;5056517;28;19963;-47
2023/04/03 00:38:50;;;;;;;;;;;;;;;2.03;94.88;103052.53;5053418;28;20401;-47
2023/04/03 00:41:15;;;;;;;;;;;;;;;2.04;96.17;103051.78;5058961;28;19931;-47
2023/04/03 00:43:41;;;;;;;;;;;;;;;2.04;96.60;103049.25;5038157;28;19927;-45
2023/04/03 00:46:06;;;;;;;;;;;;;;;2.03;96.77;103055.97;5059174;28;19921;-45
2023/04/03 00:48:38;;;;;;;;;;;;;;;2.03;96.46;103061.03;5060589;28;19965;-46
2023/04/03 00:51:05;;;;;;;;;;;;;;;2.03;96.08;103057.59;5056199;28;20242;-46
2023/04/03 00:53:33;;;;;;;;;;;;;;;2.02;95.97;103059.25;5060760;28;19920;-46
2023/04/03 00:55:59;;;;;;;;;;;;;;;1.99;95.58;103064.00;5055177;28;19909;-46
2023/04/03 00:58:28;;;;;;;;;;;;;;;1.98;95.22;103058.78;5053392;28;19916;-45
2023/04/03 01:00:57;;;;;;;;;;;;;;;1.96;94.31;103063.72;5053727;28;19917;-45
2023/04/03 01:03:22;;;;;;;;;;;;;;;1.95;95.77;103071.19;5054231;28;19916;-46
2023/04/03 01:05:48;;;;;;;;;;;;;;;1.92;96.01;103063.28;5054238;28;19986;-45
2023/04/03 01:08:13;;;;;;;;;;;;;;;1.90;95.74;103060.59;5053098;28;19939;-46
2023/04/03 01:10:38;;;;;;;;;;;;;;;1.90;95.08;103067.31;5049902;28;19917;-47
2023/04/03 01:13:17;;;;;;;;;;;;;;;1.86;95.75;103059.38;5051604;28;19927;-46
2023/04/03 01:15:42;;;;;;;;;;;;;;;1.86;95.18;103063.56;5039001;28;19961;-47
2023/04/03 01:18:09;;;;;;;;;;;;;;;1.83;95.70;103063.28;5058203;28;19920;-45
2023/04/03 01:20:42;;;;;;;;;;;;;;;1.79;95.50;103062.06;5053931;28;20278;-46
2023/04/03 01:23:13;;;;;;;;;;;;;;;1.79;95.53;103067.16;5061192;28;20317;-50
2023/04/03 01:25:42;;;;;;;;;;;;;;;1.78;95.31;103065.38;5055737;28;19939;-47
2023/04/03 01:28:09;;;;;;;;;;;;;;;1.77;95.04;103071.19;5051426;28;19916;-45
2023/04/03 01:30:39;;;;;;;;;;;;;;;1.77;94.65;103067.75;5054595;28;19924;-47
2023/04/03 01:33:05;;;;;;;;;;;;;;;1.75;95.38;103061.63;5054943;28;19919;-46
2023/04/03 01:35:30;;;;;;;;;;;;;;;1.73;95.17;103066.53;5052000;28;19916;-47
2023/04/03 01:37:55;;;;;;;;;;;;;;;1.74;95.45;103064.91;5058231;28;19943;-48
2023/04/03 01:40:20;;;;;;;;;;;;;;;1.70;95.90;103060.25;5050532;28;19957;-46
2023/04/03 01:42:46;;;;;;;;;;;;;;;1.68;95.12;103065.19;5055307;28;19970;-48
2023/04/03 01:45:11;;;;;;;;;;;;;;;1.66;95.39;103064.16;5053182;28;19924;-48
2023/04/03 01:47:36;;;;;;;;;;;;;;;1.66;95.30;103063.25;5057242;28;20379;-48
2023/04/03 01:50:02;;;;;;;;;;;;;;;1.61;95.42;103061.16;5054693;28;20390;-47
2023/04/03 01:52:27;;;;;;;;;;;;;;;1.60;94.75;103063.53;5056928;28;19923;-46
2023/04/03 01:54:52;;;;;;;;;;;;;;;1.57;95.43;103065.75;5056731;28;20005;-45
2023/04/03 01:57:17;;;;;;;;;;;;;;;1.56;95.48;103062.34;5056256;28;20307;-49
2023/04/03 01:59:43;;;;;;;;;;;;;;;1.54;96.03;103073.09;5051616;28;20027;-49
2023/04/03 02:02:08;;;;;;;;;;;;;;;1.54;95.24;103068.00;5051447;28;19921;-47
2023/04/03 02:04:33;;;;;;;;;;;;;;;1.50;95.50;103066.78;5053171;28;19920;-49
2023/04/03 02:06:58;;;;;;;;;;;;;;;1.49;96.13;103069.19;5053657;28;19966;-49
2023/04/03 02:09:24;;;;;;;;;;;;;;;1.47;96.06;103066.50;5057390;28;19916;-47
2023/04/03 02:11:49;;;;;;;;;;;;;;;1.46;95.73;103071.44;5054761;28;19921;-49
2023/04/03 02:14:14;;;;;;;;;;;;;;;1.44;95.34;103071.25;5052091;28;19993;-47
2023/04/03 02:16:40;;;;;;;;;;;;;;;1.42;96.16;103079.47;5051689;28;19920;-46
2023/04/03 02:19:06;;;;;;;;;;;;;;;1.42;95.15;103072.75;5052747;28;19920;-49
2023/04/03 02:21:31;;;;;;;;;;;;;;;1.41;95.71;103078.56;5054618;28;20342;-47
2023/04/03 02:23:57;;;;;;;;;;;;;;;1.40;95.40;103081.84;5051339;28;19981;-46
2023/04/03 02:26:22;;;;;;;;;;;;;;;1.40;95.18;103074.25;5038054;28;20144;-47
2023/04/03 02:28:47;;;;;;;;;;;;;;;1.38;95.63;103070.66;5055365;28;20016;-47
2023/04/03 02:31:12;;;;;;;;;;;;;;;1.39;95.47;103076.59;5051884;28;19956;-47
2023/04/03 02:33:38;;;;;;;;;;;;;;;1.37;95.18;103085.72;5051689;28;19920;-47
2023/04/03 02:36:06;;;;;;;;;;;;;;;1.34;95.40;103087.19;5051566;28;19978;-46
2023/04/03 02:38:32;;;;;;;;;;;;;;;1.36;96.07;103083.91;5054340;28;20355;-47
2023/04/03 02:41:04;;;;;;;;;;;;;;;1.39;95.28;103090.19;5052544;28;19916;-49
2023/04/03 02:43:30;;;;;;;;;;;;;;;1.37;95.63;103091.66;5052048;28;19919;-49
2023/04/03 02:45:55;;;;;;;;;;;;;;;1.35;95.83;103090.63;5053310;28;20007;-46
2023/04/03 02:48:20;;;;;;;;;;;;;;;1.35;95.83;103093.16;5060512;28;19912;-46
2023/04/03 02:50:45;;;;;;;;;;;;;;;1.34;95.85;103092.28;5056170;28;19924;-45
2023/04/03 02:53:11;;;;;;;;;;;;;;;1.32;95.66;103095.38;5043203;28;20002;-46
2023/04/03 02:55:36;;;;;;;;;;;;;;;1.30;96.28;103091.81;5055082;28;19917;-46
2023/04/03 02:58:01;;;;;;;;;;;;;;;1.29;96.26;103090.91;5058236;28;19920;-46
2023/04/03 03:00:27;;;;;;;;;;;;;;;1.29;95.40;103097.63;5054942;28;19928;-46
2023/04/03 03:02:52;;;;;;;;;;;;;;;1.28;95.97;103084.06;5054559;28;19921;-46
2023/04/03 03:05:17;;;;;;;;;;;;;;;1.29;95.22;103084.94;5050809;28;19959;-45
2023/04/03 03:07:43;;;;;;;;;;;;;;;1.27;95.90;103083.88;5051177;28;19921;-46
2023/04/03 03:10:08;;;;;;;;;;;;;;;1.24;96.00;103087.00;5053843;28;19913;-45
2023/04/03 03:12:33;;;;;;;;;;;;;;;1.23;95.30;103085.22;5058078;28;19931;-46
2023/04/03 03:14:58;;;;;;;;;;;;;;;1.21;95.56;103085.78;5040491;28;19920;-46
2023/04/03 03:17:24;;;;;;;;;;;;;;;1.19;96.38;103094.88;5050702;28;19921;-47
2023/04/03 03:19:49;;;;;;;;;;;;;;;1.16;96.07;103087.88;5053424;28;20383;-45
2023/04/03 03:22:15;;;;;;;;;;;;;;;1.15;96.37;103096.19;5050062;28;20393;-48
2023/04/03 03:24:41;;;;;;;;;;;;;;;1.13;96.52;103086.66;5052877;28;19912;-48
2023/04/03 03:27:06;;;;;;;;;;;;;;;1.11;96.02;103089.06;5056227;28;20063;-47
2023/04/03 03:29:31;;;;;;;;;;;;;;;1.09;96.55;103098.13;5057331;28;19954;-48
2023/04/03 03:31:56;;;;;;;;;;;;;;;1.08;96.94;103096.31;5056401;28;19938;-47
2023/04/03 03:34:22;;;;;;;;;;;;;;;1.07;97.28;103099.59;5054162;28;19921;-50
2023/04/03 03:36:47;;;;;;;;;;;;;;;1.08;96.63;103101.41;5052633;28;19917;-42
2023/04/03 03:39:12;;;;;;;;;;;;;;;1.06;97.09;103106.31;5054502;28;19921;-43
2023/04/03 03:41:37;;;;;;;;;;;;;;;1.07;96.18;103104.66;5040682;28;19923;-42
2023/04/03 03:44:03;;;;;;;;;;;;;;;1.07;96.41;103112.28;5054113;28;19921;-42
2023/04/03 03:46:28;;;;;;;;;;;;;;;1.07;96.43;103110.63;5061347;28;19974;-43
2023/04/03 03:48:53;;;;;;;;;;;;;;;1.10;95.71;103115.13;5051860;28;20034;-42
2023/04/03 03:51:19;;;;;;;;;;;;;;;1.08;96.30;103119.13;5059333;28;20264;-43
2023/04/03 03:53:44;;;;;;;;;;;;;;;1.07;96.13;103118.22;5060597;28;19920;-42
2023/04/03 03:56:10;;;;;;;;;;;;;;;1.07;96.14;103124.94;5061541;28;20363;-42
2023/04/03 03:58:35;;;;;;;;;;;;;;;1.05;96.23;103119.72;5056119;28;19912;-42
2023/04/03 04:01:02;;;;;;;;;;;;;;;1.04;97.09;103128.06;5057872;28;19920;-42
2023/04/03 04:03:28;;;;;;;;;;;;;;;1.02;96.40;103126.09;5055262;28;19924;-45
2023/04/03 04:05:53;;;;;;;;;;;;;;;1.00;96.74;103123.41;5055251;28;19925;-42
2023/04/03 04:08:18;;;;;;;;;;;;;;;0.97;96.97;103120.59;5052264;28;20008;-41
2023/04/03 04:10:43;;;;;;;;;;;;;;;0.95;96.62;103127.13;5061383;28;20353;-43
2023/04/03 04:13:09;;;;;;;;;;;;;;;0.91;96.64;103119.97;5053709;28;19927;-42
2023/04/03 04:15:34;;;;;;;;;;;;;;;0.88;97.26;103126.34;5055334;28;19948;-41
2023/04/03 04:17:59;;;;;;;;;;;;;;;0.85;97.69;103128.53;5058816;28;19916;-43
2023/04/03 04:20:24;;;;;;;;;;;;;;;0.80;97.92;103130.63;5054632;28;20026;-42
2023/04/03 04:22:50;;;;;;;;;;;;;;;0.76;97.72;103131.94;5051348;28;19916;-42
2023/04/03 04:25:15;;;;;;;;;;;;;;;0.73;97.47;103126.56;5052252;28;20007;-42
2023/04/03 04:27:40;;;;;;;;;;;;;;;0.71;97.37;103124.59;5054811;28;19923;-43
2023/04/03 04:30:06;;;;;;;;;;;;;;;0.69;97.61;103133.66;5055361;28;19921;-42
2023/04/03 04:32:31;;;;;;;;;;;;;;;0.64;98.21;103127.22;5050210;28;19917;-42
2023/04/03 04:34:57;;;;;;;;;;;;;;;0.60;97.66;103125.09;5053932;28;19913;-43
2023/04/03 04:37:22;;;;;;;;;;;;;;;0.59;98.00;103123.31;5054589;28;19920;-46
2023/04/03 04:39:47;;;;;;;;;;;;;;;0.59;97.79;103128.38;5053339;28;20381;-50
2023/04/03 04:42:12;;;;;;;;;;;;;;;0.58;97.75;103122.41;5056612;28;19928;-46
2023/04/03 04:44:38;;;;;;;;;;;;;;;0.59;97.37;103128.38;5060965;28;19919;-50
2023/04/03 04:47:04;;;;;;;;;;;;;;;0.55;98.62;103129.72;5059511;28;20055;-46
2023/04/03 04:49:29;;;;;;;;;;;;;;;0.53;98.38;103132.06;5033914;28;19965;-47
2023/04/03 04:51:54;;;;;;;;;;;;;;;0.51;98.84;103137.72;5057306;28;19912;-50
2023/04/03 04:54:20;;;;;;;;;;;;;;;0.52;97.65;103139.50;5054328;28;20476;-47
2023/04/03 04:56:45;;;;;;;;;;;;;;;0.48;98.70;103148.41;5055369;28;19922;-48
2023/04/03 04:59:10;;;;;;;;;;;;;;;0.48;98.20;103148.41;5057178;28;19943;-47
2023/04/03 05:01:35;;;;;;;;;;;;;;;0.47;97.85;103154.19;5054376;28;19921;-47
2023/04/03 05:04:01;;;;;;;;;;;;;;;0.46;98.97;103141.41;5059309;28;19921;-45
2023/04/03 05:06:26;;;;;;;;;;;;;;;0.45;97.95;103143.03;5054538;28;19916;-47
2023/04/03 05:08:51;;;;;;;;;;;;;;;0.46;98.57;103156.59;5055442;28;20370;-45
2023/04/03 05:11:17;;;;;;;;;;;;;;;0.45;98.94;103158.22;5051188;28;19998;-45
2023/04/03 05:13:42;;;;;;;;;;;;;;;0.46;99.08;103164.19;5054310;28;19927;-48
2023/04/03 05:16:07;;;;;;;;;;;;;;;0.45;98.97;103155.69;5052981;28;20287;-46
2023/04/03 05:18:32;;;;;;;;;;;;;;;0.44;98.23;103148.84;5054566;28;19979;-47
2023/04/03 05:20:58;;;;;;;;;;;;;;;0.44;98.63;103151.38;5055168;28;19912;-46
2023/04/03 05:23:23;;;;;;;;;;;;;;;0.44;99.27;103153.91;5052752;28;20407;-47
2023/04/03 05:25:49;;;;;;;;;;;;;;;0.45;98.58;103157.31;5055113;28;20299;-46
2023/04/03 05:28:14;;;;;;;;;;;;;;;0.46;98.58;103160.00;5054570;28;19916;-46
2023/04/03 05:30:39;;;;;;;;;;;;;;;0.45;98.27;103159.84;5052633;28;20287;-47
2023/04/03 05:33:05;;;;;;;;;;;;;;;0.44;98.92;103158.06;5056624;28;19960;-45
2023/04/03 05:35:31;;;;;;;;;;;;;;;0.46;98.78;103160.00;5053496;28;20015;-46
2023/04/03 05:37:56;;;;;;;;;;;;;;;0.50;99.36;103159.59;5052464;28;20651;-45
2023/04/03 05:40:21;;;;;;;;;;;;;;;0.61;98.41;103165.81;5055491;28;19916;-47
2023/04/03 05:42:46;;;;;;;;;;;;;;;0.74;98.58;103173.94;5054622;28;19977;-45
2023/04/03 05:45:12;;;;;;;;;;;;;;;0.93;97.40;103171.66;5053843;28;19944;-46
2023/04/03 05:47:37;;;;;;;;;;;;;;;1.01;96.91;103168.28;5053854;28;19924;-47
2023/04/03 05:50:03;;;;;;;;;;;;;;;1.08;97.05;103174.88;5056713;28;19925;-46
2023/04/03 05:52:28;;;;;;;;;;;;;;;1.32;96.68;103181.56;5057080;28;19920;-46
2023/04/03 05:54:53;;;;;;;;;;;;;;;1.60;96.41;103181.09;5048804;28;20303;-47
2023/04/03 05:57:18;;;;;;;;;;;;;;;1.74;95.58;103174.84;5053030;28;19935;-48
2023/04/03 05:59:45;;;;;;;;;;;;;;;1.93;95.24;103187.75;5051100;28;19916;-46
2023/04/03 06:02:12;;;;;;;;;;;;;;;1.99;94.83;103179.84;5054114;28;19925;-45
2023/04/03 06:04:38;;;;;;;;;;;;;;;2.16;94.80;103182.41;5045857;28;20259;-46
2023/04/03 06:07:03;;;;;;;;;;;;;;;2.39;94.57;103174.53;5053778;28;19970;-47
2023/04/03 06:09:29;;;;;;;;;;;;;;;2.77;93.37;103177.34;5052594;28;20392;-46
2023/04/03 06:11:54;;;;;;;;;;;;;;;3.07;92.45;103187.91;5055243;28;19909;-49
2023/04/03 06:14:19;;;;;;;;;;;;;;;3.10;92.45;103189.84;5058743;28;19924;-48
2023/04/03 06:16:44;;;;;;;;;;;;;;;3.07;92.63;103192.09;5056265;28;19962;-47
2023/04/03 06:19:10;;;;;;;;;;;;;;;3.16;91.56;103188.78;5057293;28;20329;-49
2023/04/03 06:21:36;;;;;;;;;;;;;;;3.40;91.79;103191.84;5054251;28;19916;-46
2023/04/03 06:24:03;;;;;;;;;;;;;;;3.59;90.36;103190.28;5054356;28;19962;-51
2023/04/03 06:26:28;;;;;;;;;;;;;;;3.79;90.76;103189.56;5057645;28;19913;-48
2023/04/03 06:28:54;;;;;;;;;;;;;;;4.02;91.77;103186.59;5052051;28;19942;-46
2023/04/03 06:31:19;;;;;;;;;;;;;;;4.10;90.14;103197.47;5054282;28;19916;-50
2023/04/03 06:33:45;;;;;;;;;;;;;;;4.34;90.57;103193.72;5050371;28;20012;-48
2023/04/03 06:36:11;;;;;;;;;;;;;;;4.44;91.38;103199.78;5051968;28;20046;-46
2023/04/03 06:38:36;;;;;;;;;;;;;;;4.49;90.75;103198.56;5050154;28;19985;-46
2023/04/03 06:41:02;;;;;;;;;;;;;;;4.57;88.88;103199.22;5052263;28;20019;-47
2023/04/03 06:43:27;;;;;;;;;;;;;;;4.68;87.06;103197.66;5053167;28;19917;-48
2023/04/03 06:45:52;;;;;;;;;;;;;;;4.58;89.05;103201.91;5058260;28;20392;-49
2023/04/03 06:48:17;;;;;;;;;;;;;;;4.56;87.76;103202.53;5055048;28;19917;-48
2023/04/03 06:50:43;;;;;;;;;;;;;;;4.50;84.64;103202.00;5053618;28;20357;-46
2023/04/03 06:53:08;;;;;;;;;;;;;;;4.50;86.50;103209.63;5058434;28;19923;-46
2023/04/03 06:55:34;;;;;;;;;;;;;;;4.49;85.74;103207.81;5051778;28;20339;-49
2023/04/03 06:58:00;;;;;;;;;;;;;;;4.58;84.04;103211.19;5054942;28;19917;-50
2023/04/03 07:00:25;;;;;;;;;;;;;;;4.56;81.84;103213.63;5050701;28;19944;-47
2023/04/03 07:02:51;;;;;;;;;;;;;;;4.61;85.38;103211.50;5055641;28;19938;-47
2023/04/03 07:05:16;;;;;;;;;;;;;;;4.71;82.96;103211.53;5059998;28;19962;-47
2023/04/03 07:07:42;;;;;;;;;;;;;;;4.65;80.83;103213.53;5042052;28;19912;-48
2023/04/03 07:10:07;;;;;;;;;;;;;;;4.50;81.59;103217.28;5060524;28;19920;-47
2023/04/03 07:12:33;;;;;;;;;;;;;;;4.53;81.94;103215.00;5054526;28;19912;-50
2023/04/03 07:14:59;;;;;;;;;;;;;;;4.64;81.59;103223.59;5052573;28;19951;-49
2023/04/03 07:17:25;;;;;;;;;;;;;;;4.60;78.86;103224.97;5056964;28;19923;-50
2023/04/03 07:19:50;;;;;;;;;;;;;;;4.58;80.96;103219.75;5055378;28;19916;-47
2023/04/03 07:22:15;;;;;;;;;;;;;;;4.50;80.91;103228.38;5057805;28;20341;-48
2023/04/03 07:24:41;;;;;;;;;;;;;;;4.50;80.75;103227.47;5061597;28;19920;-50
2023/04/03 07:27:08;;;;;;;;;;;;;;;4.60;79.36;103229.16;5059049;28;21335;-49
2023/04/03 07:29:33;;;;;;;;;;;;;;;4.69;79.90;103240.22;5055102;28;19969;-49
2023/04/03 07:31:58;;;;;;;;;;;;;;;4.69;78.67;103243.66;5058740;28;19908;-47
2023/04/03 07:34:24;;;;;;;;;;;;;;;4.75;79.07;103238.22;5038058;28;19921;-47
2023/04/03 07:36:49;;;;;;;;;;;;;;;4.74;77.92;103239.88;5056010;28;19917;-47
2023/04/03 07:39:14;;;;;;;;;;;;;;;4.74;77.29;103242.41;5054375;28;20295;-48
2023/04/03 07:41:40;;;;;;;;;;;;;;;4.76;75.67;103245.09;5055442;28;19919;-48
2023/04/03 07:44:05;;;;;;;;;;;;;;;4.79;76.92;103253.91;5056802;28;20291;-51
2023/04/03 07:46:31;;;;;;;;;;;;;;;4.75;75.96;103249.28;5051737;28;19971;-46
2023/04/03 07:48:56;;;;;;;;;;;;;;;4.75;76.20;103244.19;5033534;28;19916;-50
2023/04/03 07:51:21;;;;;;;;;;;;;;;4.75;76.83;103240.75;5054997;28;19917;-48
2023/04/03 07:53:46;;;;;;;;;;;;;;;4.79;76.34;103245.34;5052578;28;19924;-47
2023/04/03 07:56:12;;;;;;;;;;;;;;;4.80;76.16;103250.59;5052895;28;19923;-47
2023/04/03 07:58:37;;;;;;;;;;;;;;;4.91;75.93;103245.53;5058063;28;19920;-49
2023/04/03 08:01:02;;;;;;;;;;;;;;;4.93;75.10;103244.03;5055605;28;19932;-48
2023/04/03 08:03:28;;;;;;;;;;;;;;;5.00;75.25;103249.81;5055151;28;19959;-50
2023/04/03 08:05:53;;;;;;;;;;;;;;;5.04;75.69;103245.91;5055446;28;19920;-47
2023/04/03 08:08:20;;;;;;;;;;;;;;;5.11;74.77;103249.13;5055099;28;20280;-46
2023/04/03 08:10:48;;;;;;;;;;;;;;;5.21;73.18;103248.25;5047717;28;19999;-48
2023/04/03 08:13:13;;;;;;;;;;;;;;;5.37;73.96;103237.75;5051849;28;20441;-48
2023/04/03 08:15:38;;;;;;;;;;;;;;;5.39;72.06;103243.84;5053205;28;19913;-47
2023/04/03 08:18:04;;;;;;;;;;;;;;;5.31;72.23;103238.09;5059819;28;20290;-47
2023/04/03 08:20:29;;;;;;;;;;;;;;;5.32;68.62;103254.28;5052231;28;19924;-47
2023/04/03 08:22:54;;;;;;;;;;;;;;;5.17;69.87;103256.41;5055243;28;19917;-49
2023/04/03 08:25:20;;;;;;;;;;;;;;;5.01;71.40;103248.16;5056279;28;19955;-46
2023/04/03 08:27:45;;;;;;;;;;;;;;;5.02;70.46;103247.41;5057114;28;20342;-50
2023/04/03 08:30:11;;;;;;;;;;;;;;;5.05;70.21;103250.22;5060728;28;20492;-46
2023/04/03 08:32:36;;;;;;;;;;;;;;;5.07;69.88;103246.16;5047989;28;19963;-48
2023/04/03 08:35:02;;;;;;;;;;;;;;;5.09;68.85;103262.47;5056849;28;19913;-50
2023/04/03 08:37:28;;;;;;;;;;;;;;;5.13;69.45;103251.78;5050451;28;19909;-50
2023/04/03 08:39:54;;;;;;;;;;;;;;;5.14;68.87;103260.34;5053159;28;19916;-50
2023/04/03 08:42:38;;;;;;;;;;;;;;;5.19;66.76;103254.88;5054500;28;19922;-49
2023/04/03 08:45:19;;;;;;;;;;;;;;;5.28;64.70;103265.00;5053359;28;19921;-47
2023/04/03 08:47:50;;;;;;;;;;;;;;;5.20;65.60;103259.22;5055789;28;20007;-50
2023/04/03 08:50:18;;;;;;;;;;;;;;;5.23;63.17;103256.94;5054421;28;20375;-50
2023/04/03 08:52:52;;;;;;;;;;;;;;;5.29;62.12;103262.59;5051522;28;19986;-47
2023/04/03 08:55:28;;;;;;;;;;;;;;;5.22;60.71;103260.28;5052225;28;19912;-49
2023/04/03 08:58:05;;;;;;;;;;;;;;;5.26;61.04;103264.84;5053132;28;20001;-49
2023/04/03 09:00:36;;;;;;;;;;;;;;;5.45;61.28;103261.34;5049069;28;19912;-51
2023/04/03 09:03:01;;;;;;;;;;;;;;;5.62;58.42;103271.38;5048871;28;19931;-48
2023/04/03 09:05:32;;;;;;;;;;;;;;;5.54;61.33;103264.72;5051488;28;19917;-49
2023/04/03 09:08:00;;;;;;;;;;;;;;;5.65;59.02;103266.56;5048533;28;19917;-47
2023/04/03 09:10:33;;;;;;;;;;;;;;;5.75;57.66;103264.00;5053945;28;19917;-51
2023/04/03 09:13:06;;;;;;;;;;;;;;;5.87;54.78;103271.81;5052588;28;19970;-48
2023/04/03 09:15:32;;;;;;;;;;;;;;;5.87;54.33;103267.59;5051635;28;20002;-50
2023/04/03 09:18:15;;;;;;;;;;;;;;;5.85;54.69;103266.59;5053921;28;19955;-52
2023/04/03 09:20:57;;;;;;;;;;;;;;;5.90;51.51;103270.44;5053564;28;20042;-48
2023/04/03 09:23:30;;;;;;;;;;;;;;;6.04;52.62;103278.41;5048925;28;19996;-50
2023/04/03 09:26:11;;;;;;;;;;;;;;;6.12;49.82;103275.72;5052326;28;19957;-47
2023/04/03 09:28:39;;;;;;;;;;;;;;;6.29;47.78;103278.81;5051832;28;19938;-50
2023/04/03 09:31:16;;;;;;;;;;;;;;;6.25;48.49;103281.84;5050310;28;19924;-47
2023/04/03 09:33:42;;;;;;;;;;;;;;;6.35;43.46;103266.53;5052849;28;19978;-48
2023/04/03 09:36:07;;;;;;;;;;;;;;;6.30;46.74;103263.59;5055484;28;19921;-50
2023/04/03 09:38:33;;;;;;;;;;;;;;;6.29;47.12;103263.47;5051527;28;19916;-49
2023/04/03 09:41:04;;;;;;;;;;;;;;;6.35;46.23;103269.97;5055361;28;19913;-51
2023/04/03 09:43:30;;;;;;;;;;;;;;;6.45;46.75;103253.78;5049162;28;19917;-47
2023/04/03 09:46:16;;;;;;;;;;;;;;;6.52;48.35;103247.50;5055362;28;19912;-49
2023/04/03 09:48:49;;;;;;;;;;;;;;;6.66;47.00;103249.50;5049254;28;19912;-47
2023/04/03 09:51:15;;;;;;;;;;;;;;;6.81;47.06;103242.22;5053374;28;19935;-47
2023/04/03 09:53:42;;;;;;;;;;;;;;;6.89;45.14;103244.63;5050466;28;19921;-50
2023/04/03 09:56:17;;;;;;;;;;;;;;;6.90;43.33;103230.16;5049497;28;19985;-47
2023/04/03 09:58:48;;;;;;;;;;;;;;;6.79;42.78;103233.50;5054083;28;19920;-48
2023/04/03 10:01:33;;;;;;;;;;;;;;;6.75;40.62;103234.06;5048841;28;19924;-48
2023/04/03 10:04:07;;;;;;;;;;;;;;;6.65;43.82;103230.72;5052037;28;19912;-48
2023/04/03 10:06:35;;;;;;;;;;;;;;;6.81;44.68;103222.66;5051105;28;19996;-49
2023/04/03 10:09:05;;;;;;;;;;;;;;;6.96;42.32;103225.53;5049604;28;19908;-45
2023/04/03 10:11:30;;;;;;;;;;;;;;;7.01;42.37;103236.13;5050103;28;19958;-51
2023/04/03 10:14:00;;;;;;;;;;;;;;;7.07;41.97;103236.63;5054973;28;20346;-47
2023/04/03 10:16:27;;;;;;;;;;;;;;;7.17;39.41;103228.94;5054824;28;19913;-51
2023/04/03 10:19:04;;;;;;;;;;;;;;;7.25;38.59;103232.97;5054762;28;19967;-48
2023/04/03 10:21:40;;;;;;;;;;;;;;;7.18;39.49;103228.16;5050988;28;19919;-48
2023/04/03 10:24:28;;;;;;;;;;;;;;;7.29;39.76;103219.66;5055527;28;19909;-48
2023/04/03 10:26:59;;;;;;;;;;;;;;;7.26;38.99;103227.97;5058955;28;19978;-49
2023/04/03 10:29:24;;;;;;;;;;;;;;;7.33;39.57;103210.53;5051539;28;19956;-51
2023/04/03 10:31:59;;;;;;;;;;;;;;;7.40;39.89;103205.13;5055582;28;19959;-47
2023/04/03 10:34:28;;;;;;;;;;;;;;;7.59;37.54;103200.69;5055445;28;20640;-48
2023/04/03 10:37:02;;;;;;;;;;;;;;;7.66;38.62;103191.81;5063118;28;20424;-51
2023/04/03 10:39:45;;;;;;;;;;;;;;;7.74;37.51;103190.72;5053908;28;19956;-48
2023/04/03 10:42:19;;;;;;;;;;;;;;;7.76;37.49;103186.59;5055245;28;19998;-48
2023/04/03 10:44:57;;;;;;;;;;;;;;;7.76;38.43;103184.91;5054891;28;19966;-48
2023/04/03 10:47:37;;;;;;;;;;;;;;;7.89;36.41;103180.75;5057835;28;20319;-48
2023/04/03 10:50:08;;;;;;;;;;;;;;;7.93;35.85;103183.66;5053719;28;19920;-48
2023/04/03 10:52:52;;;;;;;;;;;;;;;7.89;35.58;103184.22;5060697;28;20003;-47
2023/04/03 10:55:29;;;;;;;;;;;;;;;7.83;35.44;103188.88;5055634;28;19947;-46
2023/04/03 10:57:56;;;;;;;;;;;;;;;7.74;35.54;103178.78;5056576;28;19916;-47
2023/04/03 11:00:43;;;;;;;;;;;;;;;7.83;35.97;103177.75;5056261;28;19925;-49
2023/04/03 11:03:15;;;;;;;;;;;;;;;7.84;35.93;103180.41;5052985;28;19916;-47
2023/04/03 11:05:44;;;;;;;;;;;;;;;7.75;35.78;103172.91;5055014;28;19912;-48
2023/04/03 11:08:15;;;;;;;;;;;;;;;7.68;35.31;103177.44;5053679;28;19984;-48
2023/04/03 11:10:50;;;;;;;;;;;;;;;7.67;36.12;103176.56;5051297;28;19919;-50
2023/04/03 11:13:35;;;;;;;;;;;;;;;7.86;34.60;103167.69;5058983;28;20381;-48
2023/04/03 11:16:02;;;;;;;;;;;;;;;7.92;34.99;103174.19;5063365;28;20387;-55
2023/04/03 11:18:27;;;;;;;;;;;;;;;7.94;35.54;103177.75;5059236;28;20003;-47
2023/04/03 11:21:03;;;;;;;;;;;;;;;8.09;36.68;103161.75;5054864;28;19995;-49
2023/04/03 11:23:32;;;;;;;;;;;;;;;8.30;36.92;103165.91;5054771;28;19918;-51
2023/04/03 11:26:04;;;;;;;;;;;;;;;8.42;36.54;103146.31;5059823;28;19923;-47
2023/04/03 11:28:30;;;;;;;;;;;;;;;8.48;37.20;103148.44;5049221;28;19992;-50
2023/04/03 11:31:01;;;;;;;;;;;;;;;8.65;36.90;103149.66;5060173;28;20283;-47
2023/04/03 11:33:32;;;;;;;;;;;;;;;8.62;36.51;103136.66;5056088;28;19924;-50
2023/04/03 11:36:05;;;;;;;;;;;;;;;8.51;35.88;103149.56;5057376;28;20387;-49
2023/04/03 11:38:36;;;;;;;;;;;;;;;8.49;36.31;103145.09;5057291;28;19925;-48
2023/04/03 11:41:02;;;;;;;;;;;;;;;8.58;35.13;103150.91;5058984;28;20386;-49
2023/04/03 11:43:31;;;;;;;;;;;;;;;8.68;34.40;103148.22;5060780;28;20208;-50
2023/04/03 11:45:59;;;;;;;;;;;;;;;8.61;34.70;103138.28;5055984;28;19942;-51
2023/04/03 11:48:33;;;;;;;;;;;;;;;8.51;37.08;103134.19;5053100;28;19919;-46
2023/04/03 11:51:00;;;;;;;;;;;;;;;8.74;35.40;103135.84;5047700;28;19959;-51
2023/04/03 11:53:35;;;;;;;;;;;;;;;8.79;34.95;103144.75;5060984;28;19920;-50
2023/04/03 11:56:02;;;;;;;;;;;;;;;8.67;36.25;103142.97;5057981;28;19955;-48
2023/04/03 11:58:28;;;;;;;;;;;;;;;8.74;35.54;103125.59;5049271;28;19916;-47
2023/04/03 12:00:55;;;;;;;;;;;;;;;8.70;35.72;103135.50;5059384;28;19978;-50
2023/04/03 12:03:26;;;;;;;;;;;;;;;8.62;35.20;103113.56;5053928;28;19913;-49
2023/04/03 12:05:55;;;;;;;;;;;;;;;8.78;32.87;103134.38;5055112;28;20314;-48
2023/04/03 12:08:24;;;;;;;;;;;;;;;8.70;34.45;103135.50;5058971;28;19913;-50
2023/04/03 12:11:08;;;;;;;;;;;;;;;8.89;33.09;103120.63;5055972;28;20007;-47
2023/04/03 12:13:34;;;;;;;;;;;;;;;9.22;34.60;103122.13;5036722;28;20295;-46
2023/04/03 12:16:00;;;;;;;;;;;;;;;9.56;33.73;103120.19;5053998;28;19913;-48
2023/04/03 12:18:31;;;;;;;;;;;;;;;9.52;34.46;103117.28;5054109;28;19915;-46
2023/04/03 12:20:58;;;;;;;;;;;;;;;9.72;35.65;103118.66;5057263;28;19967;-47
2023/04/03 12:23:23;;;;;;;;;;;;;;;9.95;35.09;103105.69;5053136;28;19930;-46
2023/04/03 12:25:50;;;;;;;;;;;;;;;9.97;33.09;103116.94;5060480;28;20406;-49
2023/04/03 12:28:15;;;;;;;;;;;;;;;9.73;34.68;103110.16;5057724;28;19952;-47
2023/04/03 12:30:41;;;;;;;;;;;;;;;9.64;33.64;103111.31;5051948;28;19989;-50
2023/04/03 12:33:40;;;;;;;;;;;;;;;9.32;35.04;103108.22;5056275;28;19928;-47
2023/04/03 12:36:12;;;;;;;;;;;;;;;9.44;34.85;103101.38;5018704;28;19912;-48
2023/04/03 12:38:38;;;;;;;;;;;;;;;9.53;36.35;103101.13;5046362;28;19927;-49
2023/04/03 12:41:23;;;;;;;;;;;;;;;9.82;36.48;103096.25;5050269;28;20413;-49
2023/04/03 12:44:06;;;;;;;;;;;;;;;9.80;36.63;103092.69;5052087;28;19916;-48
2023/04/03 12:46:41;;;;;;;;;;;;;;;9.97;35.32;103091.25;5051264;28;20341;-46